Impacts TAF Board INFO
FOR SITUATIONAL AWARENESS. NOT TO BE USED FOR FLIGHT PLANNING PURPOSES.
IDs:

KMOB - Mobile Rgnl, AL, US

Issued at 1726 UTC 18 Nov 2017
Updated at 1740 UTC 18 Nov 2017
Potential Impact None Slight Moderate High
Time1656Z 18/18Z 18/19Z 18/20Z 18/21Z 18/22Z 18/23Z 19/00Z 19/01Z 19/02Z 19/03Z 19/04Z 19/05Z 19/06Z>>
Type OBS PRVL PRVL PRVL PRVL PRVL PRVL PRVL PRVL PRVL PRVL PRVL PRVL PRVL
VIS 10 >6 >6 >6 >6 >6 >6 >6 >6 4 4 4 >6 >6
CIG 41 40 40 40 40 40 40 40 40 25 25 25 50 50
Cover BKN BKN BKN BKN BKN BKN BKN BKN BKN BKN BKN BKN BKN BKN
FltCat VFR VFR VFR VFR VFR VFR VFR VFR VFR MVFR MVFR MVFR VFR VFR
WX -- -- -- -- -- -- -- -- -- TSRA TSRA TSRA -- --
WDir 230 230 230 230 230 230 230 230 230 210 210 210 330 330
WSpd 15 15 15 15 15 15 15 15 15 12 12 12 16 16
WGst 23 23 23 23 23 23 23 23 23 20 20 20 26 26

Raw TAF
KMOB 181726Z 1818/1918 23015G23KT P6SM SCT035 BKN040 BKN250
  FM190200 21012G20KT 4SM TSRA BKN025CB
  FM190500 33016G26KT P6SM BKN050
  FM191500 36015G25KT P6SM FEW050


Raw METAR
KMOB 181656Z 23015G23KT 10SM SCT033 BKN041 BKN250 25/17 A2994 RMK AO2 SLP136 T02500167
KMOB 181556Z 21011G19KT 10SM FEW025 SCT048 SCT250 25/18 A2996 RMK AO2 SLP143 T02500183
KMOB 181456Z 22010KT 10SM SCT042 SCT250 23/18 A2997 RMK AO2 SLP146 T02330183 50004

METAR Board
Radar Display
Forecast Discussion

FOR SITUATIONAL AWARENESS. NOT TO BE USED FOR FLIGHT PLANNING PURPOSES.